M I D A S
Marine Information and Data Acquisition System
Tripno 1180 of the Zeeleeuw from 2006-12-19 07:30:20 to 2006-12-19 15:50:48
Back to CruiseResearch ActivitiesStationsMapUnderway DataData graphs

EquipmentUnitsComments
TimeDGPSUTC
LatitudeDGPSDM.mWGS84
LongitudeDGPSDM.mWGS84
SpeedMeteo Stationm/sRelative wind speed
DirectionMeteo StationdegRelative wind direction
TemperatureMeteo Stationdeg CelciusAir temperature
PressureMeteo StationPaAtmospheric pressure
HumidityMeteo Station%Relative humidity
Missing or incorrect values are displayed as -999
Metereological data collected by the RV Zeeleeuw from 2006-12-19 07:30:50 to 2006-12-19 16:02:29
                                                                                    Next 1000 lines
Time Latitude Longitude Speed Direction Temperature Pressure Humidity
2006-12-19 07:31:00 51°13.601 2°56.095 1.8 334 -0.6 103650 100
2006-12-19 07:31:04 51°13.602 2°56.093 1.7 280 -0.6 103660 100
2006-12-19 07:31:10 51°13.602 2°56.09 1.9 338 -0.6 103660 100
2006-12-19 07:31:15 51°13.603 2°56.086 1.4 279 -0.6 103650 100
2006-12-19 07:31:20 51°13.604 2°56.082 1.2 341 -0.6 103650 100
2006-12-19 07:31:26 51°13.605 2°56.076 1 279 -0.6 103660 100
2006-12-19 07:31:32 51°13.606 2°56.07 0.9 346 -0.6 103660 100
2006-12-19 07:31:36 51°13.606 2°56.065 0.8 281 -0.6 103660 100
2006-12-19 07:31:43 51°13.607 2°56.058 0.8 343 -0.6 103660 100
2006-12-19 07:31:48 51°13.608 2°56.053 0.7 343 -0.6 103660 100
2006-12-19 07:31:52 51°13.609 2°56.048 0.7 358 -0.6 103660 100
2006-12-19 07:31:58 51°13.61 2°56.041 0.8 285 -0.6 103660 100
2006-12-19 07:32:03 51°13.612 2°56.035 0.8 346 -0.6 103660 100
2006-12-19 07:32:08 51°13.613 2°56.029 0.7 354 -0.6 103660 100
2006-12-19 07:32:12 51°13.614 2°56.024 0.8 356 -0.6 103660 100
2006-12-19 07:32:18 51°13.616 2°56.015 0.6 1 -0.6 103660 100
2006-12-19 07:32:23 51°13.618 2°56.008 0.6 11 -0.6 103660 100
2006-12-19 07:32:28 51°13.619 2°56.001 0.8 72 -0.5 103660 100
2006-12-19 07:32:32 51°13.62 2°55.996 0.8 43 -0.5 103660 100
2006-12-19 07:32:38 51°13.622 2°55.988 0.8 37 -0.6 103660 100
2006-12-19 07:32:42 51°13.623 2°55.982 0.7 36 -0.6 103660 100
2006-12-19 07:32:48 51°13.625 2°55.975 0.6 36 -0.5 103660 100
2006-12-19 07:32:52 51°13.626 2°55.97 0.7 28 -0.5 103660 100
2006-12-19 07:32:58 51°13.628 2°55.964 0.9 25 -0.5 103660 100
2006-12-19 07:33:02 51°13.628 2°55.961 1 14 -0.5 103660 100
2006-12-19 07:33:08 51°13.629 2°55.956 0.5 13 -0.5 103660 100
2006-12-19 07:33:12 51°13.629 2°55.953 0.8 354 -0.5 103660 100
2006-12-19 07:33:18 51°13.63 2°55.95 0.5 352 -0.5 103660 100
2006-12-19 07:33:22 51°13.63 2°55.949 0.5 9 -0.5 103660 100
2006-12-19 07:33:26 51°13.63 2°55.948 0.8 29 -0.5 103660 100
2006-12-19 07:33:32 51°13.63 2°55.946 1.2 23 -0.5 103660 100
2006-12-19 07:33:36 51°13.631 2°55.945 1.5 33 -0.5 103660 100
2006-12-19 07:33:42 51°13.632 2°55.941 1.2 31 -0.5 103660 100
2006-12-19 07:33:46 51°13.633 2°55.938 1.3 38 -0.5 103660 100
2006-12-19 07:33:52 51°13.634 2°55.934 2.1 31 -0.5 103660 100
2006-12-19 07:33:56 51°13.636 2°55.93 1.7 37 -0.5 103660 100
2006-12-19 07:34:02 51°13.638 2°55.924 2.3 31 -0.5 103660 100
2006-12-19 07:34:08 51°13.64 2°55.918 2.2 30 -0.5 103660 100
2006-12-19 07:34:12 51°13.642 2°55.913 2.2 34 -0.5 103660 100
2006-12-19 07:34:18 51°13.645 2°55.906 2.3 35 -0.5 103650 100
2006-12-19 07:34:22 51°13.647 2°55.901 1.8 35 -0.5 103650 100
2006-12-19 07:34:28 51°13.65 2°55.893 2.6 36 -0.5 103650 100
2006-12-19 07:34:32 51°13.653 2°55.887 2.6 41 -0.5 103650 100
2006-12-19 07:34:38 51°13.656 2°55.879 2 38 -0.6 103650 100
2006-12-19 07:34:42 51°13.659 2°55.874 1.9 41 -0.6 103650 100
2006-12-19 07:34:48 51°13.663 2°55.865 1.5 36 -0.6 103650 100
2006-12-19 07:34:52 51°13.666 2°55.859 2 43 -0.6 103650 100
2006-12-19 07:34:58 51°13.67 2°55.85 1.3 39 -0.6 103650 100
2006-12-19 07:35:02 51°13.673 2°55.844 1.7 36 -0.6 103650 100
2006-12-19 07:35:08 51°13.678 2°55.835 2.1 42 -0.6 103650 100
2006-12-19 07:35:12 51°13.681 2°55.828 2 36 -0.6 103650 100
2006-12-19 07:35:18 51°13.686 2°55.819 1.9 43 -0.6 103650 100
2006-12-19 07:35:22 51°13.689 2°55.812 1.4 39 -0.6 103650 100
2006-12-19 07:35:28 51°13.694 2°55.803 1.2 39 -0.6 103650 100
2006-12-19 07:35:32 51°13.697 2°55.796 1.3 38 -0.6 103650 100
2006-12-19 07:35:38 51°13.702 2°55.787 1.2 73 -0.6 103650 100
2006-12-19 07:35:42 51°13.705 2°55.78 1.3 44 -0.6 103650 100
2006-12-19 07:35:48 51°13.71 2°55.77 1.4 23 -0.6 103650 100
2006-12-19 07:35:54 51°13.715 2°55.76 2 40 -0.6 103650 100
2006-12-19 07:35:58 51°13.718 2°55.754 2.2 26 -0.6 103650 100
2006-12-19 07:36:02 51°13.721 2°55.748 1.9 30 -0.6 103650 100
2006-12-19 07:36:08 51°13.724 2°55.741 1.5 18 -0.6 103650 100
2006-12-19 07:36:12 51°13.726 2°55.736 1.6 15 -0.6 103650 100
2006-12-19 07:36:18 51°13.729 2°55.731 1.6 17 -0.6 103650 100
2006-12-19 07:36:22 51°13.73 2°55.728 1.7 19 -0.6 103650 100
2006-12-19 07:36:28 51°13.732 2°55.725 1.5 16 -0.6 103650 100
2006-12-19 07:36:32 51°13.732 2°55.723 1.6 8 -0.6 103650 100
2006-12-19 07:36:38 51°13.733 2°55.723 1.8 9 -0.6 103650 100
2006-12-19 07:36:43 51°13.734 2°55.723 1.8 10 -0.6 103650 100
2006-12-19 07:36:48 51°13.734 2°55.724 1.8 7 -0.6 103650 100
2006-12-19 07:36:52 51°13.735 2°55.725 2.1 10 -0.6 103650 100
2006-12-19 07:36:56 51°13.735 2°55.727 2.2 12 -0.6 103650 100
2006-12-19 07:37:03 51°13.736 2°55.73 2 16 -0.6 103650 100
2006-12-19 07:37:07 51°13.736 2°55.731 2.2 23 -0.6 103650 100
2006-12-19 07:37:12 51°13.736 2°55.731 2.1 24 -0.6 103650 100
2006-12-19 07:37:16 51°13.736 2°55.731 1.9 27 -0.6 103650 100
2006-12-19 07:37:22 51°13.736 2°55.729 2.4 31 -0.6 103650 100
2006-12-19 07:37:26 51°13.736 2°55.728 2.8 35 -0.6 103650 100
2006-12-19 07:37:32 51°13.736 2°55.725 2.5 38 -0.6 103650 100
2006-12-19 07:37:36 51°13.735 2°55.722 2.7 44 -0.6 103650 100
2006-12-19 07:37:42 51°13.734 2°55.717 2.6 44 -0.6 103650 100
2006-12-19 07:37:46 51°13.733 2°55.714 3 43 -0.6 103650 100
2006-12-19 07:37:52 51°13.732 2°55.709 2.8 40 -0.6 103650 100
2006-12-19 07:37:58 51°13.731 2°55.705 2.6 40 -0.6 103650 100
2006-12-19 07:38:02 51°13.731 2°55.703 2.6 43 -0.6 103650 100
2006-12-19 07:38:08 51°13.73 2°55.701 2.8 73 -0.6 103650 100
2006-12-19 07:38:12 51°13.73 2°55.7 2.3 36 -0.6 103650 100
2006-12-19 07:38:18 51°13.731 2°55.7 1.7 43 -0.6 103650 100
2006-12-19 07:38:22 51°13.731 2°55.7 1.6 39 -0.6 103650 100
2006-12-19 07:38:28 51°13.732 2°55.701 1.4 42 -0.7 103650 100
2006-12-19 07:38:32 51°13.733 2°55.702 1.5 36 -0.7 103650 100
2006-12-19 07:38:38 51°13.734 2°55.703 1.6 37 -0.7 103650 100
2006-12-19 07:38:42 51°13.735 2°55.703 2.4 45 -0.7 103650 100
2006-12-19 07:38:48 51°13.735 2°55.703 2.2 25 -0.7 103650 100
2006-12-19 07:38:52 51°13.734 2°55.702 2.2 39 -0.7 103650 100
2006-12-19 07:38:58 51°13.732 2°55.701 2.9 73 -0.7 103650 100
2006-12-19 07:39:03 51°13.731 2°55.7 2.5 30 -0.7 103650 100
2006-12-19 07:39:07 51°13.73 2°55.699 2.3 79 -0.7 103650 100
2006-12-19 07:39:12 51°13.729 2°55.698 2.2 29 -0.7 103650 100
2006-12-19 07:39:16 51°13.728 2°55.698 2.5 73 -0.6 103650 100
2006-12-19 07:39:23 51°13.729 2°55.698 2.1 31 -0.6 103650 100
2006-12-19 07:39:28 51°13.73 2°55.698 1.4 72 -0.7 103650 100
2006-12-19 07:39:32 51°13.731 2°55.698 1.2 35 -0.7 103650 100
2006-12-19 07:39:38 51°13.733 2°55.698 1.3 79 -0.6 103650 100
2006-12-19 07:39:43 51°13.735 2°55.698 1.1 35 -0.6 103650 100
2006-12-19 07:39:48 51°13.738 2°55.697 0.9 80 -0.7 103650 100
2006-12-19 07:39:52 51°13.74 2°55.695 0.7 35 -0.7 103650 100
2006-12-19 07:39:58 51°13.743 2°55.693 0.5 78 -0.7 103650 100
2006-12-19 07:40:03 51°13.746 2°55.691 0.5 29 -0.7 103650 100
2006-12-19 07:40:08 51°13.749 2°55.689 0.4 80 -0.7 103650 100
2006-12-19 07:40:12 51°13.752 2°55.686 0.3 34 -0.7 103650 100
2006-12-19 07:40:17 51°13.755 2°55.683 0.2 15 -0.7 103650 100
2006-12-19 07:40:22 51°13.758 2°55.68 0.2 15 -0.7 103650 100
2006-12-19 07:40:27 51°13.762 2°55.677 0.3 11 -0.7 103650 100
2006-12-19 07:40:32 51°13.767 2°55.674 0.3 6 -0.7 103650 100
2006-12-19 07:40:36 51°13.771 2°55.671 0.4 6 -0.7 103650 100
2006-12-19 07:40:42 51°13.777 2°55.668 0.5 6 -0.7 103650 100
2006-12-19 07:40:47 51°13.782 2°55.665 0.6 5 -0.7 103650 100
2006-12-19 07:40:52 51°13.788 2°55.662 0.7 359 -0.7 103650 100
2006-12-19 07:40:56 51°13.792 2°55.659 0.8 360 -0.7 103660 100
2006-12-19 07:41:02 51°13.799 2°55.654 0.8 5 -0.7 103660 100
2006-12-19 07:41:06 51°13.804 2°55.651 0.8 3 -0.7 103650 100
2006-12-19 07:41:11 51°13.81 2°55.647 0.9 2 -0.7 103650 100
2006-12-19 07:41:16 51°13.817 2°55.644 0.7 2 -0.7 103660 100
2006-12-19 07:41:20 51°13.822 2°55.641 0.7 2 -0.7 103660 100
2006-12-19 07:41:26 51°13.83 2°55.636 0.7 358 -0.7 103660 100
2006-12-19 07:41:30 51°13.836 2°55.632 0.7 4 -0.7 103660 100
2006-12-19 07:41:36 51°13.844 2°55.627 0.7 4 -0.7 103660 100
2006-12-19 07:41:40 51°13.849 2°55.623 0.6 3 -0.7 103660 100
2006-12-19 07:41:46 51°13.857 2°55.617 0.5 2 -0.8 103660 100
2006-12-19 07:41:51 51°13.864 2°55.611 0.2 1 -0.8 103660 100
2006-12-19 07:41:55 51°13.869 2°55.607 0.3 2 -0.8 103660 100
2006-12-19 07:42:00 51°13.876 2°55.602 0.3 2 -0.8 103660 100
2006-12-19 07:42:04 51°13.882 2°55.598 0.3 13 -0.8 103650 100
2006-12-19 07:42:10 51°13.89 2°55.592 0.4 352 -0.8 103650 100
2006-12-19 07:42:15 51°13.896 2°55.587 0.4 351 -0.8 103650 100
2006-12-19 07:42:20 51°13.903 2°55.581 0.3 3 -0.8 103650 100
2006-12-19 07:42:25 51°13.911 2°55.577 0.5 352 -0.8 103650 100
2006-12-19 07:42:30 51°13.918 2°55.571 0.5 358 -0.8 103650 100
2006-12-19 07:42:35 51°13.925 2°55.566 0.5 355 -0.8 103660 100
2006-12-19 07:42:40 51°13.932 2°55.561 0.5 354 -0.8 103660 100
2006-12-19 07:42:44 51°13.937 2°55.557 0.5 352 -0.8 103660 100
2006-12-19 07:42:48 51°13.943 2°55.553 0.7 349 -0.8 103660 100
2006-12-19 07:42:55 51°13.953 2°55.545 0.7 351 -0.8 103650 100
2006-12-19 07:43:00 51°13.96 2°55.54 0.7 351 -0.8 103650 100
2006-12-19 07:43:05 51°13.966 2°55.535 0.6 351 -0.7 103650 100
2006-12-19 07:43:08 51°13.97 2°55.532 0.6 352 -0.7 103650 100
2006-12-19 07:43:15 51°13.979 2°55.525 0.6 283 -0.7 103650 100
2006-12-19 07:43:20 51°13.986 2°55.519 0.5 342 -0.7 103650 100
2006-12-19 07:43:25 51°13.995 2°55.515 0.5 284 -0.7 103650 100
2006-12-19 07:43:30 51°14.003 2°55.511 0.6 332 -0.7 103650 100
2006-12-19 07:43:35 51°14.009 2°55.506 0.5 284 -0.7 103650 100
2006-12-19 07:43:40 51°14.016 2°55.502 0.6 326 -0.7 103650 100
2006-12-19 07:43:44 51°14.021 2°55.497 0.6 326 -0.7 103650 100
2006-12-19 07:43:50 51°14.03 2°55.491 0.9 320 -0.7 103650 100
2006-12-19 07:43:54 51°14.035 2°55.487 1.3 282 -0.7 103650 100
2006-12-19 07:44:00 51°14.044 2°55.481 1.8 31 -0.7 103650 100
2006-12-19 07:44:05 51°14.051 2°55.476 1.6 282 -0.7 103650 100
2006-12-19 07:44:10 51°14.058 2°55.471 1.9 320 -0.7 103650 100
2006-12-19 07:44:14 51°14.063 2°55.467 2.7 285 -0.7 103650 100
2006-12-19 07:44:20 51°14.072 2°55.461 2.4 318 -0.7 103650 100
2006-12-19 07:44:24 51°14.077 2°55.457 2 279 -0.7 103650 100
2006-12-19 07:44:31 51°14.087 2°55.449 1.8 320 -0.7 103650 100
2006-12-19 07:44:36 51°14.094 2°55.444 2 280 -0.7 103650 100
2006-12-19 07:44:40 51°14.099 2°55.44 1.9 36 -0.7 103650 100
2006-12-19 07:44:46 51°14.107 2°55.433 1.8 21 -0.7 103650 100
2006-12-19 07:44:52 51°14.115 2°55.426 2.3 322 -0.7 103650 100
2006-12-19 07:44:56 51°14.121 2°55.422 2.1 281 -0.7 103650 100
2006-12-19 07:45:03 51°14.13 2°55.415 1.9 322 -0.7 103650 100
2006-12-19 07:45:08 51°14.137 2°55.409 1.6 282 -0.7 103650 100
2006-12-19 07:45:12 51°14.143 2°55.405 1.8 34 -0.7 103650 100
2006-12-19 07:45:18 51°14.151 2°55.398 1.7 283 -0.7 103650 100
2006-12-19 07:45:23 51°14.158 2°55.392 1.8 323 -0.7 103650 100
2006-12-19 07:45:28 51°14.164 2°55.386 1.8 279 -0.7 103650 100
2006-12-19 07:45:32 51°14.169 2°55.381 1.7 38 -0.7 103650 100
2006-12-19 07:45:38 51°14.177 2°55.374 2 286 -0.7 103650 100
2006-12-19 07:45:42 51°14.182 2°55.368 2.4 321 -0.7 103650 100
2006-12-19 07:45:48 51°14.19 2°55.36 2.7 327 -0.7 103650 100
2006-12-19 07:45:52 51°14.195 2°55.355 2.1 323 -0.7 103650 100
2006-12-19 07:45:58 51°14.202 2°55.345 2.1 282 -0.6 103650 100
2006-12-19 07:46:03 51°14.208 2°55.338 2.4 324 -0.6 103650 100
2006-12-19 07:46:08 51°14.214 2°55.33 2.2 286 -0.6 103650 100
2006-12-19 07:46:12 51°14.219 2°55.324 2.1 325 -0.6 103650 100
2006-12-19 07:46:18 51°14.225 2°55.314 2.1 285 -0.6 103650 100
2006-12-19 07:46:23 51°14.231 2°55.305 2 329 -0.6 103650 100
2006-12-19 07:46:28 51°14.236 2°55.297 2.2 287 -0.6 103650 100
2006-12-19 07:46:32 51°14.24 2°55.289 2.4 330 -0.6 103650 100
2006-12-19 07:46:37 51°14.246 2°55.28 2.4 281 -0.6 103650 100
2006-12-19 07:46:42 51°14.251 2°55.271 2.2 334 -0.6 103650 100
2006-12-19 07:46:47 51°14.256 2°55.261 2.1 279 -0.6 103660 100
2006-12-19 07:46:52 51°14.261 2°55.251 2.5 326 -0.6 103660 100
2006-12-19 07:46:56 51°14.265 2°55.243 2 280 -0.6 103660 100
2006-12-19 07:47:02 51°14.271 2°55.232 1.9 333 -0.6 103660 100
2006-12-19 07:47:07 51°14.277 2°55.222 2.1 281 -0.6 103660 100
2006-12-19 07:47:12 51°14.282 2°55.212 2.2 331 -0.6 103660 100
2006-12-19 07:47:16 51°14.286 2°55.203 2.9 282 -0.6 103660 100
2006-12-19 07:47:22 51°14.293 2°55.191 3 321 -0.6 103660 100
2006-12-19 07:47:26 51°14.298 2°55.182 3.3 288 -0.6 103660 100
2006-12-19 07:47:31 51°14.304 2°55.171 3 336 -0.6 103660 100
2006-12-19 07:47:36 51°14.31 2°55.16 2.4 280 -0.6 103660 100
2006-12-19 07:47:40 51°14.315 2°55.151 2.9 320 -0.6 103660 100
2006-12-19 07:47:46 51°14.322 2°55.137 3 323 -0.6 103660 100
2006-12-19 07:47:50 51°14.327 2°55.127 3 324 -0.6 103660 100
2006-12-19 07:47:56 51°14.334 2°55.113 3.3 285 -0.6 103660 100
2006-12-19 07:48:00 51°14.339 2°55.103 3 323 -0.6 103660 100
2006-12-19 07:48:06 51°14.347 2°55.088 2.9 285 -0.5 103660 100
2006-12-19 07:48:10 51°14.352 2°55.078 2.7 322 -0.5 103660 100
2006-12-19 07:48:14 51°14.357 2°55.068 2.8 281 -0.5 103660 100
2006-12-19 07:48:21 51°14.366 2°55.049 2.8 320 -0.5 103660 100
2006-12-19 07:48:25 51°14.372 2°55.038 3.4 280 -0.5 103660 100
2006-12-19 07:48:30 51°14.378 2°55.024 3.5 324 -0.5 103660 100
2006-12-19 07:48:34 51°14.383 2°55.011 4 282 -0.5 103660 100
2006-12-19 07:48:40 51°14.39 2°54.992 3.6 326 -0.5 103660 100
2006-12-19 07:48:44 51°14.394 2°54.978 3.5 326 -0.5 103660 100
2006-12-19 07:48:50 51°14.4 2°54.957 3.7 325 -0.5 103660 100
2006-12-19 07:48:55 51°14.405 2°54.939 4.4 287 -0.5 103660 100
2006-12-19 07:48:59 51°14.409 2°54.924 4.4 325 -0.5 103660 100
2006-12-19 07:49:04 51°14.414 2°54.905 4.2 284 -0.5 103660 100
2006-12-19 07:49:10 51°14.42 2°54.882 4.3 329 -0.5 103660 100
2006-12-19 07:49:14 51°14.424 2°54.867 5 286 -0.5 103660 100
2006-12-19 07:49:19 51°14.429 2°54.847 4.6 327 -0.5 103660 100
2006-12-19 07:49:24 51°14.434 2°54.828 4.7 281 -0.5 103660 100
2006-12-19 07:49:30 51°14.441 2°54.804 5 326 -0.5 103660 100
2006-12-19 07:49:34 51°14.445 2°54.789 5.1 282 -0.5 103660 100
2006-12-19 07:49:40 51°14.452 2°54.766 4.8 327 -0.5 103660 100
2006-12-19 07:49:44 51°14.457 2°54.751 4.8 328 -0.5 103650 100
2006-12-19 07:49:48 51°14.462 2°54.735 4.7 328 -0.5 103650 100
2006-12-19 07:49:54 51°14.469 2°54.712 4.5 281 -0.5 103650 100
2006-12-19 07:49:59 51°14.474 2°54.692 4.3 329 -0.5 103650 100
2006-12-19 07:50:04 51°14.479 2°54.671 4.8 285 -0.5 103660 100
2006-12-19 07:50:08 51°14.482 2°54.653 4.9 326 -0.5 103660 100
2006-12-19 07:50:14 51°14.486 2°54.626 5.1 286 -0.5 103660 100
2006-12-19 07:50:20 51°14.488 2°54.598 5.4 325 -0.5 103660 100
2006-12-19 07:50:24 51°14.489 2°54.58 5.9 283 -0.5 103650 100
2006-12-19 07:50:29 51°14.491 2°54.556 5.7 323 -0.5 103650 100
2006-12-19 07:50:34 51°14.492 2°54.532 5.8 282 -0.5 103660 100
2006-12-19 07:50:40 51°14.494 2°54.503 6.1 321 -0.5 103660 100
2006-12-19 07:50:44 51°14.494 2°54.483 6.5 319 -0.5 103640 100
2006-12-19 07:50:49 51°14.495 2°54.458 6.4 319 -0.5 103640 100
2006-12-19 07:50:54 51°14.496 2°54.433 6.9 283 -0.5 103640 100
2006-12-19 07:50:59 51°14.497 2°54.408 7.5 319 -0.5 103640 100
2006-12-19 07:51:04 51°14.497 2°54.383 7.2 281 -0.5 103640 100
2006-12-19 07:51:09 51°14.496 2°54.358 7.3 319 -0.5 103640 100
2006-12-19 07:51:14 51°14.493 2°54.334 7.6 282 -0.5 103640 100
2006-12-19 07:51:19 51°14.489 2°54.31 7.6 326 -0.5 103640 100
2006-12-19 07:51:24 51°14.484 2°54.286 7.4 285 -0.5 103640 100
2006-12-19 07:51:29 51°14.478 2°54.263 7.4 322 -0.5 103640 100
2006-12-19 07:51:34 51°14.471 2°54.24 7 285 -0.5 103630 100
2006-12-19 07:51:39 51°14.464 2°54.218 6.9 325 -0.5 103630 100
2006-12-19 07:51:43 51°14.458 2°54.2 6.6 322 -0.5 103640 100
2006-12-19 07:51:49 51°14.449 2°54.174 6.9 323 -0.5 103640 100
2006-12-19 07:51:54 51°14.44 2°54.153 6.6 282 -0.4 103630 100
2006-12-19 07:51:59 51°14.431 2°54.131 6.3 326 -0.4 103630 100
2006-12-19 07:52:03 51°14.424 2°54.114 7.2 285 -0.5 103640 100
2006-12-19 07:52:09 51°14.413 2°54.088 6.5 325 -0.5 103640 100
2006-12-19 07:52:14 51°14.403 2°54.067 6.8 280 -0.5 103630 100
2006-12-19 07:52:20 51°14.391 2°54.04 6.2 322 -0.5 103630 100
2006-12-19 07:52:24 51°14.383 2°54.023 6.4 284 -0.5 103600 100
2006-12-19 07:52:29 51°14.374 2°54 6.4 324 -0.5 103600 100
2006-12-19 07:52:33 51°14.367 2°53.981 6.5 285 -0.5 103600 100
2006-12-19 07:52:39 51°14.356 2°53.954 6.8 325 -0.5 103600 100
2006-12-19 07:52:44 51°14.347 2°53.931 7.4 322 -0.5 103590 100
2006-12-19 07:52:48 51°14.34 2°53.912 7.6 324 -0.5 103590 100
2006-12-19 07:52:54 51°14.328 2°53.884 7.8 283 -0.5 103600 100
2006-12-19 07:52:59 51°14.318 2°53.861 8.4 328 -0.5 103600 100
2006-12-19 07:53:04 51°14.308 2°53.838 7.7 286 -0.5 103590 100
2006-12-19 07:53:09 51°14.298 2°53.815 8.7 328 -0.5 103590 100
2006-12-19 07:53:13 51°14.29 2°53.797 7.9 281 -0.5 103590 100
2006-12-19 07:53:19 51°14.278 2°53.768 7.7 327 -0.5 103590 100
2006-12-19 07:53:24 51°14.268 2°53.745 7.8 283 -0.5 103600 100
2006-12-19 07:53:29 51°14.258 2°53.721 8.2 325 -0.5 103600 100
2006-12-19 07:53:34 51°14.248 2°53.698 8.4 285 -0.5 103590 100
2006-12-19 07:53:39 51°14.238 2°53.675 8 324 -0.5 103590 100
2006-12-19 07:53:44 51°14.229 2°53.651 8.1 281 -0.5 103590 100
2006-12-19 07:53:49 51°14.219 2°53.628 7.8 323 -0.5 103590 100
2006-12-19 07:53:54 51°14.208 2°53.604 7.5 282 -0.5 103650 100
2006-12-19 07:53:59 51°14.199 2°53.581 7.1 324 -0.5 103650 100
2006-12-19 07:54:03 51°14.19 2°53.562 7.3 280 -0.5 103590 100
2006-12-19 07:54:09 51°14.178 2°53.534 7.3 323 -0.5 103590 100
2006-12-19 07:54:14 51°14.168 2°53.511 7.3 282 -0.5 103590 100
2006-12-19 07:54:19 51°14.159 2°53.487 6.7 324 -0.5 103590 100
2006-12-19 07:54:24 51°14.148 2°53.464 6.8 281 -0.5 103590 100
2006-12-19 07:54:28 51°14.141 2°53.445 6.2 327 -0.5 103590 100
2006-12-19 07:54:34 51°14.129 2°53.416 6.4 285 -0.5 103600 100
2006-12-19 07:54:40 51°14.117 2°53.388 6.7 327 -0.5 103600 100
2006-12-19 07:54:44 51°14.109 2°53.369 7 326 -0.5 103650 100
2006-12-19 07:54:49 51°14.098 2°53.345 6.8 328 -0.5 103650 100
2006-12-19 07:54:54 51°14.089 2°53.321 7.7 285 -0.5 103650 100
2006-12-19 07:54:59 51°14.079 2°53.298 6.9 326 -0.5 103650 100
2006-12-19 07:55:04 51°14.069 2°53.274 7.2 284 -0.5 103650 100
2006-12-19 07:55:09 51°14.059 2°53.25 7.9 326 -0.5 103650 100
2006-12-19 07:55:14 51°14.049 2°53.226 7.3 285 -0.5 103600 100
2006-12-19 07:55:19 51°14.039 2°53.202 7.2 325 -0.5 103600 100
2006-12-19 07:55:24 51°14.029 2°53.179 7.2 326 -0.5 103600 100
2006-12-19 07:55:29 51°14.019 2°53.155 7.5 324 -0.5 103600 100
2006-12-19 07:55:33 51°14.011 2°53.136 7.6 323 -0.5 103590 100
2006-12-19 07:55:39 51°14 2°53.107 6.8 323 -0.5 103590 100
2006-12-19 07:55:44 51°13.99 2°53.083 6.8 325 -0.4 103600 100
2006-12-19 07:55:49 51°13.98 2°53.059 7.2 322 -0.4 103600 100
2006-12-19 07:55:54 51°13.97 2°53.035 7.5 287 -0.4 103590 100
2006-12-19 07:55:59 51°13.961 2°53.011 7.5 324 -0.4 103590 100
2006-12-19 07:56:03 51°13.952 2°52.992 8.6 284 -0.4 103590 100
2006-12-19 07:56:09 51°13.941 2°52.963 7.9 321 -0.4 103590 100
2006-12-19 07:56:14 51°13.931 2°52.939 7.7 282 -0.4 103590 100
2006-12-19 07:56:19 51°13.921 2°52.915 7.6 320 -0.4 103590 100
2006-12-19 07:56:23 51°13.913 2°52.896 7.8 324 -0.4 103590 100
2006-12-19 07:56:29 51°13.901 2°52.866 8 326 -0.4 103590 100
2006-12-19 07:56:34 51°13.891 2°52.842 7.3 285 -0.4 103590 100
2006-12-19 07:56:39 51°13.88 2°52.817 7.8 322 -0.4 103590 100
2006-12-19 07:56:44 51°13.87 2°52.792 7.5 322 -0.4 103580 100
2006-12-19 07:56:48 51°13.862 2°52.773 8.4 320 -0.4 103580 100
2006-12-19 07:56:54 51°13.85 2°52.743 8.5 321 -0.4 103580 100
2006-12-19 07:56:59 51°13.84 2°52.718 8.2 324 -0.4 103580 100
2006-12-19 07:57:04 51°13.83 2°52.693 8.2 323 -0.4 103590 100
2006-12-19 07:57:09 51°13.82 2°52.668 7.6 326 -0.4 103590 100
2006-12-19 07:57:14 51°13.809 2°52.643 7.9 327 -0.4 103590 100
2006-12-19 07:57:19 51°13.799 2°52.618 8.3 323 -0.4 103590 100
2006-12-19 07:57:23 51°13.791 2°52.598 8 282 -0.4 103590 100
2006-12-19 07:57:29 51°13.779 2°52.568 7.8 322 -0.4 103590 100
2006-12-19 07:57:34 51°13.768 2°52.543 7.3 287 -0.4 103590 100
2006-12-19 07:57:39 51°13.758 2°52.517 8 323 -0.4 103590 100
2006-12-19 07:57:44 51°13.748 2°52.493 7.7 324 -0.4 103590 100
2006-12-19 07:57:49 51°13.738 2°52.467 7.3 325 -0.4 103590 100
2006-12-19 07:57:54 51°13.727 2°52.442 7.9 324 -0.4 103590 100
2006-12-19 07:58:00 51°13.715 2°52.412 7.5 321 -0.4 103590 100
2006-12-19 07:58:04 51°13.707 2°52.392 7.4 285 -0.4 103590 100
2006-12-19 07:58:09 51°13.696 2°52.367 7.1 321 -0.4 103590 100
2006-12-19 07:58:13 51°13.688 2°52.347 7.2 282 -0.4 103590 100
2006-12-19 07:58:19 51°13.676 2°52.317 7.4 318 -0.4 103590 100
2006-12-19 07:58:24 51°13.666 2°52.292 7.7 281 -0.4 103610 100
2006-12-19 07:58:29 51°13.655 2°52.267 7.5 323 -0.4 103610 100
2006-12-19 07:58:34 51°13.645 2°52.241 8.1 280 -0.4 103590 100
2006-12-19 07:58:39 51°13.635 2°52.217 8 327 -0.4 103590 100
2006-12-19 07:58:43 51°13.627 2°52.196 8.5 325 -0.4 103590 100
2006-12-19 07:58:50 51°13.612 2°52.161 7.8 321 -0.4 103590 100
2006-12-19 07:58:54 51°13.604 2°52.141 8.7 286 -0.4 103590 100
2006-12-19 07:58:59 51°13.594 2°52.116 7.7 320 -0.4 103590 100
2006-12-19 07:59:03 51°13.586 2°52.096 8.2 321 -0.4 103590 100
2006-12-19 07:59:09 51°13.573 2°52.067 8.4 323 -0.4 103590 100
2006-12-19 07:59:14 51°13.563 2°52.041 8.9 280 -0.4 103650 100
2006-12-19 07:59:19 51°13.553 2°52.017 8.8 318 -0.4 103650 100
2006-12-19 07:59:24 51°13.543 2°51.991 8.2 318 -0.4 103640 100
2006-12-19 07:59:29 51°13.532 2°51.966 7.8 321 -0.4 103640 100
2006-12-19 07:59:34 51°13.523 2°51.941 7.5 321 -0.4 103590 100
2006-12-19 07:59:39 51°13.512 2°51.916 8.4 322 -0.4 103590 100
2006-12-19 07:59:43 51°13.504 2°51.895 8.3 319 -0.4 103660 100
2006-12-19 07:59:49 51°13.492 2°51.865 8.5 322 -0.4 103660 100
2006-12-19 07:59:54 51°13.482 2°51.84 7.8 322 -0.4 103650 100
2006-12-19 07:59:59 51°13.472 2°51.815 9.1 322 -0.4 103650 100
2006-12-19 08:00:03 51°13.464 2°51.794 7.9 281 -0.4 103590 100
2006-12-19 08:00:09 51°13.452 2°51.764 7.7 320 -0.4 103590 100
2006-12-19 08:00:14 51°13.442 2°51.739 7.2 282 -0.4 103590 100
2006-12-19 08:00:19 51°13.431 2°51.714 7.3 319 -0.4 103590 100
2006-12-19 08:00:24 51°13.421 2°51.688 7.2 284 -0.4 103590 100
2006-12-19 08:00:29 51°13.411 2°51.662 7.7 321 -0.4 103590 100
2006-12-19 08:00:34 51°13.401 2°51.636 8 282 -0.5 103590 100
2006-12-19 08:00:39 51°13.39 2°51.61 7.8 319 -0.5 103590 100
2006-12-19 08:00:43 51°13.381 2°51.589 7.8 321 -0.5 103590 100
2006-12-19 08:00:49 51°13.369 2°51.557 9 319 -0.5 103590 100
2006-12-19 08:00:54 51°13.358 2°51.531 7.3 282 -0.5 103580 100
2006-12-19 08:00:59 51°13.348 2°51.503 8.7 319 -0.5 103580 100
2006-12-19 08:01:04 51°13.336 2°51.477 8.4 318 -0.6 103580 100
2006-12-19 08:01:09 51°13.327 2°51.45 8.2 321 -0.6 103580 100
2006-12-19 08:01:14 51°13.315 2°51.424 8.2 321 -0.6 103580 100
2006-12-19 08:01:19 51°13.305 2°51.396 8.2 322 -0.6 103580 100
2006-12-19 08:01:24 51°13.294 2°51.37 8.2 322 -0.6 103660 100
2006-12-19 08:01:29 51°13.284 2°51.342 7.7 322 -0.6 103660 100
2006-12-19 08:01:34 51°13.273 2°51.315 7.7 286 -0.6 103580 100
2006-12-19 08:01:39 51°13.262 2°51.288 7.7 322 -0.6 103580 100
2006-12-19 08:01:44 51°13.252 2°51.261 7.8 320 -0.6 103580 100
2006-12-19 08:01:49 51°13.241 2°51.234 8.6 327 -0.6 103580 100
2006-12-19 08:01:54 51°13.23 2°51.207 8 327 -0.6 103580 100
2006-12-19 08:01:59 51°13.219 2°51.18 8.3 326 -0.6 103580 100
2006-12-19 08:02:04 51°13.209 2°51.153 8.2 281 -0.6 103580 100
2006-12-19 08:02:09 51°13.198 2°51.126 7.8 326 -0.6 103580 100
2006-12-19 08:02:14 51°13.187 2°51.099 8.3 326 -0.6 103590 100
2006-12-19 08:02:18 51°13.178 2°51.077 7.9 325 -0.6 103590 100
2006-12-19 08:02:23 51°13.168 2°51.05 8.7 282 -0.6 103580 100
2006-12-19 08:02:29 51°13.155 2°51.017 8.1 323 -0.6 103580 100
2006-12-19 08:02:34 51°13.144 2°50.99 7.8 283 -0.6 103580 100
2006-12-19 08:02:39 51°13.134 2°50.962 7.8 322 -0.6 103580 100
2006-12-19 08:02:44 51°13.123 2°50.935 7.8 324 -0.7 103580 100
2006-12-19 08:02:49 51°13.112 2°50.908 8.3 323 -0.7 103580 100
2006-12-19 08:02:54 51°13.101 2°50.881 7.8 284 -0.7 103580 100
2006-12-19 08:02:59 51°13.09 2°50.854 7.5 326 -0.7 103580 100
2006-12-19 08:03:04 51°13.08 2°50.826 8.8 281 -0.7 103580 100
2006-12-19 08:03:09 51°13.069 2°50.8 8.5 326 -0.7 103580 100
2006-12-19 08:03:14 51°13.059 2°50.772 8.8 285 -0.7 103580 100
2006-12-19 08:03:19 51°13.047 2°50.745 8.2 322 -0.7 103580 100
2006-12-19 08:03:23 51°13.039 2°50.723 8.5 322 -0.7 103580 100
2006-12-19 08:03:30 51°13.024 2°50.685 8.3 322 -0.7 103580 100
2006-12-19 08:03:34 51°13.016 2°50.663 8 282 -0.7 103580 100
2006-12-19 08:03:39 51°13.005 2°50.636 7.8 321 -0.7 103580 100
2006-12-19 08:03:44 51°12.995 2°50.608 8 322 -0.7 103590 100
2006-12-19 08:03:48 51°12.986 2°50.587 7.6 320 -0.7 103590 100
2006-12-19 08:03:54 51°12.973 2°50.554 7.9 281 -0.7 103580 100
2006-12-19 08:03:59 51°12.963 2°50.527 7.5 327 -0.7 103580 100
2006-12-19 08:04:04 51°12.952 2°50.5 7.6 326 -0.7 103650 100
2006-12-19 08:04:09 51°12.941 2°50.472 7.2 327 -0.7 103650 100
2006-12-19 08:04:14 51°12.93 2°50.445 7.9 324 -0.7 103580 100
2006-12-19 08:04:19 51°12.92 2°50.418 7.3 326 -0.7 103580 100
2006-12-19 08:04:23 51°12.911 2°50.396 7.6 283 -0.7 103580 100
2006-12-19 08:04:29 51°12.898 2°50.364 8.3 327 -0.7 103580 100
2006-12-19 08:04:34 51°12.887 2°50.337 8.3 286 -0.7 103590 100
2006-12-19 08:04:39 51°12.877 2°50.309 8.1 325 -0.7 103590 100
2006-12-19 08:04:44 51°12.866 2°50.282 7.9 326 -0.7 103580 100
2006-12-19 08:04:49 51°12.856 2°50.254 7.8 325 -0.7 103580 100
2006-12-19 08:04:54 51°12.846 2°50.227 7.8 322 -0.7 103590 100
2006-12-19 08:04:58 51°12.837 2°50.205 7 328 -0.7 103590 100
2006-12-19 08:05:04 51°12.826 2°50.172 7.8 281 -0.7 103590 100
2006-12-19 08:05:09 51°12.815 2°50.144 7.7 325 -0.7 103590 100
2006-12-19 08:05:14 51°12.805 2°50.117 7.9 283 -0.7 103590 100
2006-12-19 08:05:19 51°12.795 2°50.089 7.4 323 -0.7 103590 100
2006-12-19 08:05:23 51°12.786 2°50.067 7.2 325 -0.7 103590 100
2006-12-19 08:05:30 51°12.772 2°50.028 7.6 323 -0.7 103590 100
2006-12-19 08:05:34 51°12.764 2°50.006 6.2 287 -0.7 103590 100
2006-12-19 08:05:39 51°12.753 2°49.979 7.2 321 -0.7 103590 100
2006-12-19 08:05:43 51°12.746 2°49.956 6.7 323 -0.7 103580 100
2006-12-19 08:05:49 51°12.733 2°49.923 5.7 326 -0.7 103580 100
2006-12-19 08:05:54 51°12.723 2°49.895 6.1 282 -0.7 103590 100
2006-12-19 08:06:00 51°12.711 2°49.862 6.4 323 -0.7 103590 100
2006-12-19 08:06:04 51°12.703 2°49.84 6.5 283 -0.7 103580 100
2006-12-19 08:06:10 51°12.691 2°49.806 6.9 323 -0.7 103580 100
2006-12-19 08:06:14 51°12.683 2°49.784 7.6 280 -0.6 103580 100
2006-12-19 08:06:20 51°12.671 2°49.751 7.2 324 -0.6 103580 100
2006-12-19 08:06:24 51°12.663 2°49.729 7.8 323 -0.6 103590 100
2006-12-19 08:06:28 51°12.655 2°49.707 7.4 323 -0.6 103590 100
2006-12-19 08:06:34 51°12.643 2°49.674 7.7 322 -0.6 103580 100
2006-12-19 08:06:39 51°12.633 2°49.647 6.5 322 -0.6 103580 100
2006-12-19 08:06:44 51°12.623 2°49.619 6.4 323 -0.6 103580 100
2006-12-19 08:06:49 51°12.613 2°49.592 6.5 325 -0.6 103580 100
2006-12-19 08:06:54 51°12.603 2°49.564 6.7 325 -0.5 103580 100
2006-12-19 08:06:59 51°12.593 2°49.536 7.7 322 -0.5 103580 100
2006-12-19 08:07:04 51°12.582 2°49.509 7.3 281 -0.5 103580 100
2006-12-19 08:07:10 51°12.571 2°49.476 7.4 324 -0.5 103580 100
2006-12-19 08:07:14 51°12.562 2°49.454 7.7 287 -0.5 103590 100
2006-12-19 08:07:20 51°12.551 2°49.422 8.4 323 -0.5 103590 100
2006-12-19 08:07:24 51°12.543 2°49.4 8.2 283 -0.5 103580 100
2006-12-19 08:07:30 51°12.531 2°49.367 8.3 323 -0.5 103580 100
2006-12-19 08:07:34 51°12.523 2°49.345 8.1 281 -0.5 103580 100
2006-12-19 08:07:40 51°12.51 2°49.313 8.3 322 -0.5 103580 100
2006-12-19 08:07:44 51°12.503 2°49.29 7.8 324 -0.5 103580 100
2006-12-19 08:07:50 51°12.491 2°49.258 7.8 324 -0.5 103580 100
2006-12-19 08:07:54 51°12.483 2°49.236 7.6 284 -0.5 103580 100
2006-12-19 08:08:00 51°12.471 2°49.203 7.4 325 -0.5 103580 100
2006-12-19 08:08:04 51°12.463 2°49.181 7 324 -0.5 103580 100
2006-12-19 08:08:09 51°12.452 2°49.154 7 326 -0.5 103580 100
2006-12-19 08:08:14 51°12.443 2°49.127 7.9 285 -0.5 103570 100
2006-12-19 08:08:20 51°12.43 2°49.095 7.8 321 -0.5 103570 100
2006-12-19 08:08:24 51°12.422 2°49.072 7.3 322 -0.5 103580 100
2006-12-19 08:08:29 51°12.411 2°49.046 8 321 -0.5 103580 100
2006-12-19 08:08:34 51°12.402 2°49.018 7.3 280 -0.5 103580 100
2006-12-19 08:08:39 51°12.392 2°48.991 7.2 322 -0.5 103580 100
2006-12-19 08:08:44 51°12.382 2°48.964 7.2 322 -0.5 103580 100
2006-12-19 08:08:49 51°12.372 2°48.937 7 323 -0.5 103580 100
2006-12-19 08:08:54 51°12.362 2°48.91 7.9 287 -0.5 103570 100
2006-12-19 08:09:00 51°12.35 2°48.877 8 321 -0.5 103570 100
2006-12-19 08:09:04 51°12.342 2°48.855 7.9 323 -0.5 103570 100
2006-12-19 08:09:10 51°12.33 2°48.823 7.7 326 -0.5 103570 100
2006-12-19 08:09:14 51°12.322 2°48.801 7.9 327 -0.5 103570 100
2006-12-19 08:09:20 51°12.31 2°48.769 7.5 325 -0.5 103570 100
2006-12-19 08:09:24 51°12.301 2°48.747 7.2 285 -0.5 103570 100
2006-12-19 08:09:30 51°12.29 2°48.714 7 322 -0.5 103570 100
2006-12-19 08:09:34 51°12.281 2°48.693 7.4 281 -0.5 103570 100
2006-12-19 08:09:39 51°12.271 2°48.666 8.5 322 -0.5 103570 100
2006-12-19 08:09:44 51°12.261 2°48.638 8.6 323 -0.5 103570 100
2006-12-19 08:09:49 51°12.251 2°48.611 8.6 323 -0.5 103570 100
2006-12-19 08:09:54 51°12.241 2°48.584 8.8 286 -0.5 103570 100
2006-12-19 08:10:00 51°12.229 2°48.551 8.9 325 -0.5 103570 100
2006-12-19 08:10:03 51°12.223 2°48.535 8.8 284 -0.5 103570 100
2006-12-19 08:10:10 51°12.208 2°48.496 9 322 -0.5 103570 100
2006-12-19 08:10:14 51°12.2 2°48.474 8 285 -0.5 103570 100
2006-12-19 08:10:19 51°12.191 2°48.447 7.9 321 -0.5 103570 100
2006-12-19 08:10:24 51°12.18 2°48.42 8.6 284 -0.4 103570 100
2006-12-19 08:10:29 51°12.171 2°48.392 8.8 322 -0.4 103570 100
2006-12-19 08:10:34 51°12.16 2°48.365 8.3 287 -0.5 103570 100
2006-12-19 08:10:39 51°12.15 2°48.337 8.1 322 -0.5 103570 100
2006-12-19 08:10:44 51°12.14 2°48.31 8.1 322 -0.5 103570 100
2006-12-19 08:10:48 51°12.132 2°48.289 8.2 319 -0.5 103570 100
2006-12-19 08:10:54 51°12.119 2°48.256 8.7 283 -0.4 103570 100
2006-12-19 08:10:59 51°12.11 2°48.228 8.7 324 -0.4 103570 100
2006-12-19 08:11:04 51°12.099 2°48.201 8.5 322 -0.4 103570 100
2006-12-19 08:11:10 51°12.087 2°48.168 8.9 322 -0.4 103570 100
2006-12-19 08:11:15 51°12.078 2°48.14 9.1 320 -0.4 103570 100
2006-12-19 08:11:20 51°12.067 2°48.113 8.1 321 -0.4 103570 100
2006-12-19 08:11:24 51°12.059 2°48.09 8 288 -0.4 103570 100
2006-12-19 08:11:29 51°12.05 2°48.063 8 321 -0.4 103570 100
2006-12-19 08:11:34 51°12.04 2°48.035 8.4 282 -0.4 103570 100
2006-12-19 08:11:39 51°12.03 2°48.008 8.7 322 -0.4 103570 100
2006-12-19 08:11:44 51°12.02 2°47.98 8.5 323 -0.4 103560 100
2006-12-19 08:11:49 51°12.01 2°47.952 8.2 323 -0.4 103560 100
2006-12-19 08:11:54 51°12 2°47.925 8.5 322 -0.4 103560 100
2006-12-19 08:11:59 51°11.99 2°47.897 8.1 321 -0.4 103560 100
2006-12-19 08:12:03 51°11.982 2°47.875 8.4 321 -0.4 103570 100
2006-12-19 08:12:10 51°11.968 2°47.836 8.6 322 -0.4 103570 100
2006-12-19 08:12:14 51°11.96 2°47.814 8.6 285 -0.4 103560 100
2006-12-19 08:12:20 51°11.948 2°47.781 8.7 323 -0.4 103560 100
2006-12-19 08:12:24 51°11.94 2°47.759 8.3 322 -0.4 103560 100
2006-12-19 08:12:29 51°11.93 2°47.731 8.6 321 -0.4 103560 100
2006-12-19 08:12:34 51°11.92 2°47.703 8.2 281 -0.4 103560 100
2006-12-19 08:12:39 51°11.91 2°47.676 8.9 321 -0.4 103560 100
2006-12-19 08:12:43 51°11.902 2°47.653 8.8 321 -0.4 103560 100
2006-12-19 08:12:49 51°11.89 2°47.62 9.6 321 -0.4 103560 100
2006-12-19 08:12:54 51°11.88 2°47.593 8.2 284 -0.4 103560 100
2006-12-19 08:12:59 51°11.871 2°47.565 8.2 321 -0.4 103560 100
2006-12-19 08:13:03 51°11.862 2°47.543 9.2 287 -0.4 103560 100
2006-12-19 08:13:10 51°11.848 2°47.505 8.7 319 -0.4 103560 100
2006-12-19 08:13:15 51°11.838 2°47.477 9.3 286 -0.4 103560 100
2006-12-19 08:13:20 51°11.828 2°47.45 8.7 321 -0.4 103560 100
2006-12-19 08:13:24 51°11.82 2°47.428 8.7 323 -0.4 103560 100
2006-12-19 08:13:28 51°11.812 2°47.406 8.5 324 -0.4 103560 100
2006-12-19 08:13:34 51°11.8 2°47.372 8.3 322 -0.4 103560 100
2006-12-19 08:13:40 51°11.788 2°47.34 7.8 321 -0.4 103560 100
2006-12-19 08:13:44 51°11.78 2°47.317 8.2 319 -0.4 103560 100
2006-12-19 08:13:49 51°11.769 2°47.29 9.1 321 -0.4 103560 100
2006-12-19 08:13:53 51°11.762 2°47.268 8.8 287 -0.4 103560 100
2006-12-19 08:13:59 51°11.75 2°47.235 9.1 322 -0.4 103560 100
2006-12-19 08:14:04 51°11.74 2°47.208 8.7 281 -0.4 103570 100
2006-12-19 08:14:10 51°11.728 2°47.174 8.3 321 -0.4 103570 100
2006-12-19 08:14:14 51°11.72 2°47.153 8.1 287 -0.4 103560 100
2006-12-19 08:14:20 51°11.708 2°47.12 7.9 318 -0.4 103560 100
2006-12-19 08:14:24 51°11.7 2°47.098 7.3 284 -0.4 103560 100
2006-12-19 08:14:29 51°11.692 2°47.069 8.5 319 -0.4 103560 100
2006-12-19 08:14:34 51°11.684 2°47.041 8.1 285 -0.4 103560 100
2006-12-19 08:14:39 51°11.676 2°47.012 7.5 320 -0.4 103560 100
2006-12-19 08:14:43 51°11.671 2°46.988 7.6 320 -0.4 103560 100
2006-12-19 08:14:49 51°11.663 2°46.953 7.3 319 -0.4 103560 100
2006-12-19 08:14:54 51°11.656 2°46.923 8.2 285 -0.4 103570 100
2006-12-19 08:14:59 51°11.65 2°46.893 7.8 319 -0.4 103570 100
2006-12-19 08:15:04 51°11.644 2°46.863 8.1 318 -0.4 103570 100
2006-12-19 08:15:08 51°11.64 2°46.839 7.2 319 -0.4 103570 100
2006-12-19 08:15:14 51°11.633 2°46.802 6.8 286 -0.4 103560 100
2006-12-19 08:15:19 51°11.628 2°46.772 7 321 -0.4 103560 100
2006-12-19 08:15:24 51°11.622 2°46.741 6.5 319 -0.4 103570 100
2006-12-19 08:15:29 51°11.617 2°46.711 7.7 318 -0.4 103570 100
2006-12-19 08:15:34 51°11.612 2°46.68 8 280 -0.4 103560 100
2006-12-19 08:15:39 51°11.607 2°46.65 7.5 317 -0.4 103560 100
2006-12-19 08:15:44 51°11.601 2°46.619 8.7 318 -0.4 103570 100
2006-12-19 08:15:49 51°11.596 2°46.589 8.2 319 -0.4 103570 100
2006-12-19 08:15:54 51°11.59 2°46.558 8.7 280 -0.4 103570 100
2006-12-19 08:15:59 51°11.584 2°46.528 8.2 317 -0.4 103570 100
2006-12-19 08:16:04 51°11.579 2°46.497 8.4 282 -0.4 103560 100
2006-12-19 08:16:09 51°11.573 2°46.467 8.2 320 -0.4 103560 100
2006-12-19 08:16:14 51°11.567 2°46.436 8.3 281 -0.4 103570 100
2006-12-19 08:16:19 51°11.562 2°46.405 8.2 319 -0.4 103570 100
2006-12-19 08:16:24 51°11.556 2°46.375 7.5 283 -0.4 103560 100
2006-12-19 08:16:29 51°11.551 2°46.344 7.5 319 -0.4 103560 100
2006-12-19 08:16:33 51°11.547 2°46.32 7.1 285 -0.4 103570 100
2006-12-19 08:16:39 51°11.54 2°46.283 6.6 318 -0.4 103570 100
2006-12-19 08:16:44 51°11.535 2°46.252 6.7 319 -0.4 103560 100
2006-12-19 08:16:49 51°11.529 2°46.222 7.4 321 -0.4 103560 100
2006-12-19 08:16:54 51°11.523 2°46.191 7.4 284 -0.4 103570 100
2006-12-19 08:16:59 51°11.518 2°46.161 6.7 320 -0.4 103570 100
2006-12-19 08:17:03 51°11.514 2°46.137 7.4 282 -0.4 103570 100
2006-12-19 08:17:09 51°11.507 2°46.1 6.7 320 -0.4 103570 100
2006-12-19 08:17:14 51°11.502 2°46.07 7.4 287 -0.5 103570 100
2006-12-19 08:17:19 51°11.496 2°46.039 8.1 319 -0.5 103570 100
2006-12-19 08:17:23 51°11.491 2°46.015 7.2 280 -0.5 103570 100
2006-12-19 08:17:29 51°11.485 2°45.978 6.8 321 -0.5 103570 100
2006-12-19 08:17:34 51°11.479 2°45.948 7.9 287 -0.4 103570 100
2006-12-19 08:17:39 51°11.474 2°45.917 6.9 319 -0.4 103570 100
2006-12-19 08:17:44 51°11.468 2°45.887 6.6 320 -0.4 103570 100
2006-12-19 08:17:48 51°11.464 2°45.863 6.6 320 -0.4 103570 100
2006-12-19 08:17:54 51°11.457 2°45.826 6.9 320 -0.5 103640 100
2006-12-19 08:17:59 51°11.452 2°45.796 7.6 318 -0.5 103640 100
2006-12-19 08:18:04 51°11.447 2°45.765 7.1 317 -0.4 103570 100
2006-12-19 08:18:09 51°11.441 2°45.735 7.7 321 -0.4 103570 100
2006-12-19 08:18:14 51°11.435 2°45.704 7.3 281 -0.4 103570 100
2006-12-19 08:18:19 51°11.43 2°45.674 7.8 321 -0.4 103570 100
2006-12-19 08:18:24 51°11.424 2°45.644 7.3 285 -0.4 103570 100
2006-12-19 08:18:29 51°11.419 2°45.614 7 320 -0.4 103570 100
2006-12-19 08:18:34 51°11.413 2°45.583 7.1 282 -0.4 103570 100
2006-12-19 08:18:40 51°11.407 2°45.547 7.4 321 -0.4 103570 100
2006-12-19 08:18:44 51°11.402 2°45.523 6.5 323 -0.4 103570 100
2006-12-19 08:18:49 51°11.396 2°45.493 7.4 325 -0.4 103570 100
2006-12-19 08:18:54 51°11.391 2°45.463 7.8 322 -0.4 103620 100
2006-12-19 08:18:59 51°11.385 2°45.433 7.3 323 -0.4 103620 100
2006-12-19 08:19:04 51°11.379 2°45.402 7 284 -0.4 103580 100
2006-12-19 08:19:09 51°11.374 2°45.373 7.1 324 -0.4 103580 100
2006-12-19 08:19:14 51°11.368 2°45.342 6.6 287 -0.4 103580 100
2006-12-19 08:19:19 51°11.363 2°45.312 7.3 322 -0.4 103580 100
2006-12-19 08:19:23 51°11.358 2°45.288 6.9 285 -0.4 103580 100
2006-12-19 08:19:29 51°11.352 2°45.251 7.6 322 -0.4 103580 100
2006-12-19 08:19:34 51°11.346 2°45.221 7.4 284 -0.4 103580 100
2006-12-19 08:19:39 51°11.34 2°45.191 7.6 319 -0.4 103580 100
2006-12-19 08:19:43 51°11.336 2°45.167 7 321 -0.4 103580 100
2006-12-19 08:19:49 51°11.329 2°45.13 7.1 321 -0.4 103580 100
2006-12-19 08:19:54 51°11.324 2°45.099 7.7 280 -0.4 103580 100
2006-12-19 08:19:59 51°11.319 2°45.069 8 319 -0.4 103580 100
2006-12-19 08:20:04 51°11.314 2°45.038 8.1 287 -0.4 103580 100
2006-12-19 08:20:08 51°11.311 2°45.013 7.7 319 -0.4 103580 100
2006-12-19 08:20:13 51°11.306 2°44.983 7 320 -0.4 103570 100
2006-12-19 08:20:20 51°11.3 2°44.939 6.5 321 -0.4 103570 100
2006-12-19 08:20:24 51°11.296 2°44.915 7.6 287 -0.4 103580 100
2006-12-19 08:20:30 51°11.291 2°44.877 7.9 321 -0.4 103580 100
2006-12-19 08:20:34 51°11.287 2°44.853 7.5 281 -0.4 103580 100
2006-12-19 08:20:40 51°11.281 2°44.816 7.6 320 -0.4 103580 100
2006-12-19 08:20:45 51°11.277 2°44.785 7.7 324 -0.4 103580 100
2006-12-19 08:20:49 51°11.273 2°44.76 7.3 323 -0.4 103580 100
2006-12-19 08:20:54 51°11.268 2°44.73 6.9 281 -0.4 103580 100
2006-12-19 08:21:00 51°11.263 2°44.693 7.4 319 -0.4 103580 100
2006-12-19 08:21:04 51°11.259 2°44.668 7.2 285 -0.4 103580 100
2006-12-19 08:21:09 51°11.256 2°44.637 7.9 320 -0.4 103580 100
2006-12-19 08:21:15 51°11.251 2°44.6 8.1 323 -0.4 103570 100
2006-12-19 08:21:20 51°11.247 2°44.568 7.5 322 -0.4 103570 100
2006-12-19 08:21:24 51°11.244 2°44.543 7.4 322 -0.4 103650 100
2006-12-19 08:21:30 51°11.24 2°44.506 7.4 320 -0.4 103650 100
2006-12-19 08:21:35 51°11.236 2°44.475 6.4 285 -0.3 103590 100
2006-12-19 08:21:40 51°11.232 2°44.444 6.6 317 -0.3 103590 100
2006-12-19 08:21:44 51°11.229 2°44.419 8 323 -0.3 103580 100
2006-12-19 08:21:49 51°11.226 2°44.388 8.1 322 -0.3 103580 100
2006-12-19 08:21:55 51°11.222 2°44.351 7.9 280 -0.3 103580 100
2006-12-19 08:22:00 51°11.219 2°44.32 7.5 319 -0.3 103580 100
2006-12-19 08:22:04 51°11.216 2°44.295 7.1 285 -0.3 103580 100
2006-12-19 08:22:09 51°11.213 2°44.264 7.5 320 -0.3 103580 100
2006-12-19 08:22:15 51°11.209 2°44.226 8 281 -0.3 103580 100
2006-12-19 08:22:20 51°11.206 2°44.195 7.9 320 -0.3 103580 100
2006-12-19 08:22:24 51°11.203 2°44.171 7.5 280 -0.3 103570 100
2006-12-19 08:22:30 51°11.2 2°44.133 6.6 321 -0.3 103570 100
2006-12-19 08:22:34 51°11.198 2°44.107 6.7 281 -0.3 103580 100
2006-12-19 08:22:40 51°11.195 2°44.069 7 324 -0.3 103580 100
2006-12-19 08:22:44 51°11.193 2°44.044 7.2 325 -0.3 103580 100
2006-12-19 08:22:49 51°11.19 2°44.013 7.1 321 -0.3 103580 100
2006-12-19 08:22:54 51°11.188 2°43.982 6.8 283 -0.3 103580 100
2006-12-19 08:23:00 51°11.185 2°43.944 6.5 321 -0.3 103580 100
2006-12-19 08:23:04 51°11.184 2°43.919 6 282 -0.3 103580 100
2006-12-19 08:23:09 51°11.182 2°43.887 7.2 318 -0.3 103580 100
2006-12-19 08:23:15 51°11.179 2°43.85 7.5 315 -0.3 103580 100
2006-12-19 08:23:20 51°11.178 2°43.818 7.3 317 -0.3 103580 100
2006-12-19 08:23:24 51°11.176 2°43.793 8.2 281 -0.3 103580 100
2006-12-19 08:23:29 51°11.174 2°43.761 7.5 321 -0.3 103580 100
2006-12-19 08:23:35 51°11.172 2°43.723 6.8 323 -0.3 103590 100
2006-12-19 08:23:40 51°11.17 2°43.692 7 323 -0.3 103590 100
2006-12-19 08:23:44 51°11.169 2°43.667 6.3 324 -0.3 103580 100
2006-12-19 08:23:50 51°11.166 2°43.629 6.7 323 -0.3 103580 100
2006-12-19 08:23:55 51°11.165 2°43.597 6.7 281 -0.3 103580 100
2006-12-19 08:24:00 51°11.163 2°43.566 6.5 323 -0.3 103580 100
2006-12-19 08:24:04 51°11.161 2°43.541 6.1 282 -0.3 103590 100
2006-12-19 08:24:09 51°11.159 2°43.509 6 323 -0.3 103590 100
2006-12-19 08:24:15 51°11.157 2°43.471 6.4 285 -0.3 103590 100
2006-12-19 08:24:20 51°11.156 2°43.44 6.9 321 -0.3 103590 100
2006-12-19 08:24:24 51°11.154 2°43.415 6.9 283 -0.3 103590 100
2006-12-19 08:24:29 51°11.153 2°43.383 8 319 -0.3 103590 100
2006-12-19 08:24:35 51°11.151 2°43.346 7.3 285 -0.3 103590 100
2006-12-19 08:24:40 51°11.15 2°43.314 7.2 318 -0.3 103590 100
2006-12-19 08:24:45 51°11.149 2°43.283 7.2 317 -0.3 103590 100
2006-12-19 08:24:50 51°11.148 2°43.251 6.5 317 -0.3 103590 100
2006-12-19 08:24:54 51°11.148 2°43.226 7 286 -0.3 103590 100
2006-12-19 08:25:00 51°11.146 2°43.188 6.7 315 -0.3 103590 100
2006-12-19 08:25:05 51°11.145 2°43.156 6.2 282 -0.3 103590 100
2006-12-19 08:25:10 51°11.144 2°43.125 6.9 29 -0.3 103590 100
2006-12-19 08:25:14 51°11.143 2°43.099 6.4 284 -0.3 103580 100
2006-12-19 08:25:20 51°11.142 2°43.062 6.4 322 -0.3 103580 100
2006-12-19 08:25:24 51°11.141 2°43.036 6.7 286 -0.3 103580 100
2006-12-19 08:25:29 51°11.14 2°43.004 6.4 325 -0.3 103580 100
2006-12-19 08:25:35 51°11.138 2°42.965 6.1 323 -0.3 103590 100
2006-12-19 08:25:39 51°11.138 2°42.942 6.3 323 -0.3 103590 100
2006-12-19 08:25:44 51°11.137 2°42.912 6.3 322 -0.3 103590 100
2006-12-19 08:25:49 51°11.135 2°42.881 7.5 321 -0.3 103590 100
2006-12-19 08:25:54 51°11.134 2°42.85 7 286 -0.3 103590 100
2006-12-19 08:26:00 51°11.133 2°42.812 6.7 320 -0.3 103590 100
2006-12-19 08:26:04 51°11.132 2°42.788 6.2 285 -0.2 103590 100
2006-12-19 08:26:10 51°11.13 2°42.75 6 322 -0.2 103590 100
2006-12-19 08:26:14 51°11.129 2°42.725 6.1 286 -0.3 103590 100
2006-12-19 08:26:20 51°11.128 2°42.687 7 322 -0.3 103590 100
2006-12-19 08:26:24 51°11.128 2°42.663 6.9 322 -0.2 103580 100
2006-12-19 08:26:29 51°11.127 2°42.635 6.5 321 -0.2 103580 100
2006-12-19 08:26:35 51°11.125 2°42.603 6.3 281 -0.2 103580 100
2006-12-19 08:26:39 51°11.124 2°42.583 5.7 322 -0.2 103580 100
2006-12-19 08:26:44 51°11.123 2°42.558 5.8 318 -0.3 103580 100
2006-12-19 08:26:49 51°11.121 2°42.535 5 319 -0.3 103580 100
2006-12-19 08:26:55 51°11.12 2°42.508 4.7 282 -0.2 103620 100
2006-12-19 08:27:00 51°11.119 2°42.486 4.7 318 -0.2 103620 100
2006-12-19 08:27:04 51°11.118 2°42.469 4.6 281 -0.2 103620 100
2006-12-19 08:27:09 51°11.117 2°42.449 4.5 321 -0.2 103620 100
2006-12-19 08:27:14 51°11.116 2°42.428 4.8 284 -0.2 103620 100
2006-12-19 08:27:20 51°11.114 2°42.405 4.6 29 -0.2 103620 100
2006-12-19 08:27:24 51°11.113 2°42.39 4.6 288 -0.2 103630 100
2006-12-19 08:27:29 51°11.113 2°42.371 4.5 37 -0.2 103630 100
2006-12-19 08:27:34 51°11.112 2°42.353 4.3 286 -0.2 103670 100
2006-12-19 08:27:39 51°11.111 2°42.336 3.9 30 -0.2 103670 100
2006-12-19 08:27:44 51°11.111 2°42.319 4.1 25 -0.2 103620 100
2006-12-19 08:27:50 51°11.11 2°42.3 3.7 34 -0.2 103620 100
2006-12-19 08:27:54 51°11.109 2°42.287 3.3 281 -0.2 103630 100
2006-12-19 08:28:00 51°11.108 2°42.268 3.8 33 -0.2 103630 100
2006-12-19 08:28:05 51°11.107 2°42.253 3.4 280 -0.2 103630 100
2006-12-19 08:28:09 51°11.107 2°42.241 3.5 238 -0.2 103630 100
2006-12-19 08:28:15 51°11.105 2°42.224 4 286 -0.2 103630 100
2006-12-19 08:28:19 51°11.104 2°42.212 4.3 31 -0.2 103630 100
2006-12-19 08:28:24 51°11.104 2°42.198 3.7 26 -0.2 103670 100
2006-12-19 08:28:29 51°11.103 2°42.183 3.7 35 -0.2 103670 100
2006-12-19 08:28:34 51°11.103 2°42.169 3.8 283 -0.2 103630 100
2006-12-19 08:28:40 51°11.102 2°42.153 3 37 -0.2 103630 100
2006-12-19 08:28:44 51°11.101 2°42.141 3.2 24 -0.2 103630 100
2006-12-19 08:28:49 51°11.101 2°42.128 2.8 236 -0.2 103630 100
2006-12-19 08:28:54 51°11.1 2°42.114 3.6 281 -0.2 103670 100
2006-12-19 08:29:00 51°11.099 2°42.1 2.9 36 -0.2 103670 100
2006-12-19 08:29:04 51°11.099 2°42.091 3.2 281 -0.2 103620 100
2006-12-19 08:29:09 51°11.098 2°42.08 2.8 241 -0.2 103620 100
2006-12-19 08:29:14 51°11.097 2°42.071 2.7 25 -0.2 103630 100
2006-12-19 08:29:20 51°11.096 2°42.062 2.6 248 -0.2 103630 100
2006-12-19 08:29:24 51°11.096 2°42.058 2.7 287 -0.2 103640 100
2006-12-19 08:29:29 51°11.094 2°42.054 2.5 259 -0.2 103640 100
2006-12-19 08:29:34 51°11.093 2°42.052 2 284 -0.2 103630 100
2006-12-19 08:29:40 51°11.093 2°42.051 1.9 264 -0.2 103630 100
2006-12-19 08:29:45 51°11.093 2°42.051 2.4 263 -0.2 103610 100
2006-12-19 08:29:49 51°11.092 2°42.053 3.6 260 -0.2 103610 100
2006-12-19 08:29:53 51°11.092 2°42.053 2.7 285 -0.2 103600 100
2006-12-19 08:29:59 51°11.092 2°42.053 1.9 261 -0.2 103600 100
2006-12-19 08:30:04 51°11.092 2°42.053 1.6 279 -0.2 103600 100
2006-12-19 08:30:10 51°11.092 2°42.054 2.2 265 -0.2 103600 100
2006-12-19 08:30:16 51°11.092 2°42.054 1.9 261 -0.2 103630 100
2006-12-19 08:30:21 51°11.091 2°42.055 2 267 -0.2 103630 100
2006-12-19 08:30:27 51°11.091 2°42.054 3.1 283 -0.2 103640 100
2006-12-19 08:30:33 51°11.091 2°42.054 2.5 262 -0.2 103640 100
2006-12-19 08:30:38 51°11.092 2°42.054 2.3 287 -0.2 103630 100
2006-12-19 08:30:43 51°11.092 2°42.053 2.4 261 -0.2 103630 100
2006-12-19 08:30:48 51°11.092 2°42.053 2.2 259 -0.2 103640 100
2006-12-19 08:30:53 51°11.092 2°42.053 1.5 261 -0.2 103640 100
2006-12-19 08:30:58 51°11.092 2°42.053 1.4 284 -0.2 103640 100
2006-12-19 08:31:03 51°11.091 2°42.053 1.3 269 -0.2 103640 100
2006-12-19 08:31:08 51°11.092 2°42.052 2 287 -0.2 103640 100
2006-12-19 08:31:12 51°11.092 2°42.052 1.7 265 -0.2 103640 100
2006-12-19 08:31:17 51°11.091 2°42.051 2 76 -0.1 103640 100
2006-12-19 08:31:23 51°11.091 2°42.051 1.7 34 -0.1 103640 100
2006-12-19 08:31:27 51°11.092 2°42.05 2 73 -0.2 103640 100
2006-12-19 08:31:32 51°11.092 2°42.049 1.5 33 -0.2 103640 100
2006-12-19 08:31:37 51°11.093 2°42.049 3.3 76 -0.1 103640 100
2006-12-19 08:31:42 51°11.092 2°42.049 3.8 36 -0.1 103640 100
2006-12-19 08:31:47 51°11.092 2°42.048 2.9 267 -0.2 103640 100
2006-12-19 08:31:52 51°11.091 2°42.048 2.2 264 -0.2 103640 100
2006-12-19 08:31:57 51°11.092 2°42.047 2.7 270 -0.1 103670 100
2006-12-19 08:32:02 51°11.091 2°42.047 3 36 -0.1 103670 100
2006-12-19 08:32:07 51°11.091 2°42.046 3 82 -0.1 103680 100
2006-12-19 08:32:12 51°11.09 2°42.047 2.9 32 -0.1 103680 100
2006-12-19 08:32:16 51°11.09 2°42.046 2.4 26 -0.1 103680 100
2006-12-19 08:32:21 51°11.091 2°42.044 3.2 33 -0.1 103680 100
2006-12-19 08:32:26 51°11.09 2°42.044 3.7 79 -0.1 103680 100
2006-12-19 08:32:31 51°11.089 2°42.044 4 31 -0.1 103680 100
2006-12-19 08:32:36 51°11.088 2°42.044 4 13 -0.1 103680 100
2006-12-19 08:32:41 51°11.088 2°42.043 2.9 36 -0.1 103680 100
2006-12-19 08:32:45 51°11.088 2°42.043 2.7 25 -0.1 103680 100
2006-12-19 08:32:51 51°11.088 2°42.041 3.7 30 -0.1 103680 100
2006-12-19 08:32:55 51°11.088 2°42.041 2.7 77 -0.1 103680 100
2006-12-19 08:33:00 51°11.087 2°42.04 2.5 36 -0.1 103680 100
2006-12-19 08:33:05 51°11.087 2°42.039 2.9 73 -0.1 103680 100
2006-12-19 08:33:10 51°11.087 2°42.038 2.4 30 -0.1 103680 100
2006-12-19 08:33:15 51°11.087 2°42.038 2.9 80 -0.1 103680 100
2006-12-19 08:33:20 51°11.087 2°42.037 2.4 268 -0.1 103680 100
2006-12-19 08:33:24 51°11.085 2°42.037 2.1 286 -0.1 103690 100
2006-12-19 08:33:29 51°11.085 2°42.036 2.4 266 -0.1 103690 100
2006-12-19 08:33:34 51°11.084 2°42.035 1.7 280 -0.1 103690 100
2006-12-19 08:33:40 51°11.084 2°42.034 1.8 262 -0.1 103690 100
2006-12-19 08:33:44 51°11.084 2°42.034 2.2 257 -0.1 103690 100
2006-12-19 08:33:49 51°11.083 2°42.033 2.6 259 -0.1 103690 100
2006-12-19 08:33:54 51°11.084 2°42.031 2.4 281 -0.1 103680 100
2006-12-19 08:34:00 51°11.083 2°42.03 1.5 260 -0.1 103680 100
2006-12-19 08:34:04 51°11.084 2°42.029 2.7 285 -0.1 103680 100
2006-12-19 08:34:09 51°11.084 2°42.028 2.8 260 -0.1 103680 100
2006-12-19 08:34:14 51°11.084 2°42.027 3.2 287 -0.1 103680 100
2006-12-19 08:34:20 51°11.083 2°42.026 2.8 253 -0.1 103680 100
2006-12-19 08:34:24 51°11.083 2°42.026 3.4 282 -0.1 103670 100
2006-12-19 08:34:29 51°11.082 2°42.025 4 256 -0.1 103670 100
2006-12-19 08:34:34 51°11.082 2°42.024 2.7 282 -0.1 103670 100
2006-12-19 08:34:39 51°11.081 2°42.024 2.6 253 -0.1 103670 100
2006-12-19 08:34:45 51°11.082 2°42.021 2.3 251 -0.1 103670 100
2006-12-19 08:34:49 51°11.081 2°42.021 2.9 261 -0.1 103670 100
2006-12-19 08:34:55 51°11.08 2°42.02 1.7 287 -0.1 103670 100
2006-12-19 08:34:59 51°11.08 2°42.02 1.9 259 -0.1 103670 100
2006-12-19 08:35:04 51°11.081 2°42.018 2.5 286 -0.1 103670 100
2006-12-19 08:35:09 51°11.081 2°42.016 2.3 252 -0.1 103670 100
2006-12-19 08:35:14 51°11.08 2°42.015 2.4 283 -0.1 103670 100
2006-12-19 08:35:20 51°11.08 2°42.014 3 259 -0.1 103670 100
2006-12-19 08:35:24 51°11.08 2°42.013 3.1 285 -0.1 103670 100
2006-12-19 08:35:29 51°11.08 2°42.012 3 255 -0.1 103670 100
2006-12-19 08:35:34 51°11.079 2°42.011 3.1 285 -0.1 103670 100
2006-12-19 08:35:40 51°11.079 2°42.009 2.5 252 -0.1 103670 100
2006-12-19 08:35:44 51°11.079 2°42.008 2.6 20 -0.1 103670 100
2006-12-19 08:35:49 51°11.078 2°42.008 2.9 248 -0.1 103670 100
2006-12-19 08:35:54 51°11.077 2°42.007 3.1 288 -0.1 103670 100
2006-12-19 08:36:00 51°11.076 2°42.007 3.5 256 -0.1 103670 100
2006-12-19 08:36:04 51°11.076 2°42.006 3.3 287 -0.1 103670 100
2006-12-19 08:36:09 51°11.076 2°42.005 3 258 -0.1 103670 100
2006-12-19 08:36:14 51°11.075 2°42.003 2.3 280 -0.1 103670 100
2006-12-19 08:36:20 51°11.075 2°42.002 3.4 258 -0.1 103670 100
2006-12-19 08:36:24 51°11.075 2°42.002 3 281 -0.1 103670 100
2006-12-19 08:36:29 51°11.074 2°42 3.1 258 -0.1 103670 100
2006-12-19 08:36:34 51°11.074 2°41.999 3.6 281 -0.1 103670 100
2006-12-19 08:36:39 51°11.074 2°41.998 3.6 256 -0.1 103670 100
2006-12-19 08:36:44 51°11.074 2°41.996 2.9 260 -0.1 103670 100
2006-12-19 08:36:49 51°11.074 2°41.995 2.2 262 -0.1 103670 100
2006-12-19 08:36:54 51°11.073 2°41.994 3.7 286 -0.1 103670 100
2006-12-19 08:36:59 51°11.073 2°41.994 2.5 260 -0.1 103670 100
2006-12-19 08:37:04 51°11.072 2°41.992 3.2 282 -0.1 103670 100
2006-12-19 08:37:10 51°11.072 2°41.991 2.5 263 -0.1 103670 100
2006-12-19 08:37:14 51°11.072 2°41.99 2.8 281 -0.1 103660 100
2006-12-19 08:37:20 51°11.071 2°41.989 2.5 249 -0.1 103660 100
2006-12-19 08:37:24 51°11.071 2°41.987 2.9 249 -0.1 103670 100
2006-12-19 08:37:30 51°11.071 2°41.986 2.8 250 -0.1 103670 100
2006-12-19 08:37:35 51°11.07 2°41.985 3.2 282 -0.1 103670 100
2006-12-19 08:37:39 51°11.07 2°41.984 2.7 252 -0.1 103670 100
2006-12-19 08:37:44 51°11.07 2°41.983 3 251 -0.1 103670 100
2006-12-19 08:37:49 51°11.069 2°41.982 2.2 251 -0.1 103670 100
2006-12-19 08:37:55 51°11.069 2°41.98 2.7 287 -0.1 103670 100
2006-12-19 08:37:59 51°11.069 2°41.98 2.8 249 -0.1 103670 100
2006-12-19 08:38:04 51°11.068 2°41.978 2.7 281 -0.1 103670 100
2006-12-19 08:38:09 51°11.068 2°41.977 2.6 246 -0.1 103670 100
2006-12-19 08:38:14 51°11.068 2°41.976 2.2 285 -0.1 103660 100
2006-12-19 08:38:20 51°11.068 2°41.974 2.1 251 -0.1 103660 100
2006-12-19 08:38:24 51°11.067 2°41.974 2.4 280 -0.1 103670 100
2006-12-19 08:38:29 51°11.067 2°41.973 2.6 253 -0.1 103670 100
2006-12-19 08:38:34 51°11.066 2°41.972 2.6 254 -0.1 103660 100
2006-12-19 08:38:40 51°11.065 2°41.971 2.4 256 -0.1 103660 100
2006-12-19 08:38:44 51°11.065 2°41.97 2.8 257 -0.1 103670 100
2006-12-19 08:38:49 51°11.064 2°41.969 2.7 252 -0.1 103670 100
2006-12-19 08:38:54 51°11.064 2°41.968 3.5 282 -0.1 103670 100
2006-12-19 08:39:00 51°11.064 2°41.966 3 251 -0.1 103670 100
2006-12-19 08:39:04 51°11.064 2°41.965 3 283 -0.1 103670 100
2006-12-19 08:39:09 51°11.064 2°41.964 2.3 249 -0.1 103670 100
2006-12-19 08:39:14 51°11.063 2°41.963 2.7 287 -999 103670 100
2006-12-19 08:39:19 51°11.062 2°41.962 2.9 255 -999 103670 100
2006-12-19 08:39:25 51°11.062 2°41.961 2.4 286 -0.1 103670 100
2006-12-19 08:39:29 51°11.061 2°41.96 2.4 254 -0.1 103670 100
2006-12-19 08:39:35 51°11.061 2°41.959 2.6 286 -999 103670 100
2006-12-19 08:39:39 51°11.061 2°41.958 2.8 250 -999 103670 100
2006-12-19 08:39:44 51°11.06 2°41.957 2.5 19 -999 103670 100
2006-12-19 08:39:49 51°11.058 2°41.957 3 252 -999 103670 100
2006-12-19 08:39:54 51°11.058 2°41.956 2.6 281 -0.1 103670 100
2006-12-19 08:40:00 51°11.057 2°41.955 3 256 -0.1 103670 100
2006-12-19 08:40:04 51°11.057 2°41.954 1.9 287 -0.1 103670 100
2006-12-19 08:40:09 51°11.056 2°41.953 2.5 260 -0.1 103670 100
2006-12-19 08:40:14 51°11.056 2°41.952 2.3 284 -0.1 103670 100
2006-12-19 08:40:20 51°11.056 2°41.95 3.1 260 -0.1 103670 100
2006-12-19 08:40:24 51°11.055 2°41.949 2.5 285 -0.1 103680 100
2006-12-19 08:40:29 51°11.055 2°41.949 2.9 259 -0.1 103680 100
2006-12-19 08:40:35 51°11.054 2°41.947 3.2 286 -999 103680 100
2006-12-19 08:40:39 51°11.054 2°41.946 2.6 259 -999 103680 100
2006-12-19 08:40:45 51°11.053 2°41.945 2.5 262 -999 103680 100
2006-12-19 08:40:49 51°11.053 2°41.945 2.9 262 -999 103680 100
2006-12-19 08:40:53 51°11.052 2°41.944 3 282 -999 103680 100
2006-12-19 08:41:00 51°11.052 2°41.943 2.9 260 -999 103680 100
2006-12-19 08:41:04 51°11.051 2°41.942 2.8 283 -999 103680 100
2006-12-19 08:41:09 51°11.051 2°41.941 3.6 254 -999 103680 100
2006-12-19 08:41:14 51°11.051 2°41.939 3.5 285 -999 103680 100
2006-12-19 08:41:19 51°11.05 2°41.939 3.6 258 -999 103680 100
2006-12-19 08:41:24 51°11.049 2°41.938 3.4 285 -999 103680 100
2006-12-19 08:41:29 51°11.049 2°41.937 4 258 -999 103680 100
2006-12-19 08:41:34 51°11.048 2°41.937 3.3 285 -999 103680 100
2006-12-19 08:41:39 51°11.047 2°41.936 2.8 252 -999 103680 100
2006-12-19 08:41:44 51°11.046 2°41.935 3.2 18 -999 103680 100
2006-12-19 08:41:50 51°11.046 2°41.933 3 253 -999 103680 100
2006-12-19 08:41:54 51°11.046 2°41.933 2.6 281 -999 103680 100
2006-12-19 08:42:00 51°11.046 2°41.932 2.5 256 -999 103680 100
2006-12-19 08:42:04 51°11.045 2°41.931 2.3 252 -999 103670 100
2006-12-19 08:42:09 51°11.044 2°41.93 2.5 253 -999 103670 100
2006-12-19 08:42:15 51°11.043 2°41.93 2 281 -999 103670 100
2006-12-19 08:42:19 51°11.043 2°41.929 2.3 248 -999 103670 100
2006-12-19 08:42:24 51°11.043 2°41.928 2.3 282 -999 103680 100
2006-12-19 08:42:29 51°11.042 2°41.927 2 248 -999 103680 100
2006-12-19 08:42:35 51°11.042 2°41.925 2.5 285 -999 103670 100
2006-12-19 08:42:40 51°11.041 2°41.924 2.7 246 -999 103670 100
2006-12-19 08:42:44 51°11.041 2°41.923 2.3 25 -999 103670 100
2006-12-19 08:42:49 51°11.04 2°41.921 3 241 -999 103670 100
2006-12-19 08:42:54 51°11.038 2°41.918 3.1 288 -999 103670 100
2006-12-19 08:43:00 51°11.037 2°41.913 3.6 242 -999 103670 100
2006-12-19 08:43:04 51°11.035 2°41.908 3.1 285 -999 103670 100
2006-12-19 08:43:09 51°11.032 2°41.902 3.9 30 -999 103670 100
2006-12-19 08:43:14 51°11.028 2°41.894 4.2 282 -999 103670 100
2006-12-19 08:43:20 51°11.025 2°41.882 4.7 32 -999 103670 100
2006-12-19 08:43:24 51°11.022 2°41.873 4.2 281 -999 103670 100
2006-12-19 08:43:30 51°11.019 2°41.858 4.6 34 -999 103670 100
2006-12-19 08:43:34 51°11.016 2°41.846 4.7 280 -999 103670 100
2006-12-19 08:43:40 51°11.012 2°41.828 4.3 39 -999 103670 100
2006-12-19 08:43:45 51°11.007 2°41.812 4.8 25 -999 103670 100
2006-12-19 08:43:49 51°11.003 2°41.799 4.6 33 -999 103670 100
2006-12-19 08:43:55 51°10.997 2°41.776 5.6 287 -999 103670 100
2006-12-19 08:43:59 51°10.993 2°41.76 5.3 315 -999 103670 100
2006-12-19 08:44:04 51°10.987 2°41.739 5.1 19 -999 103670 100
2006-12-19 08:44:09 51°10.982 2°41.717 5.5 35 -999 103670 100
2006-12-19 08:44:14 51°10.976 2°41.694 5.5 280 -999 103670 100
2006-12-19 08:44:20 51°10.968 2°41.667 5.4 316 -999 103670 100
2006-12-19 08:44:24 51°10.963 2°41.647 7 284 -999 103670 100
2006-12-19 08:44:30 51°10.956 2°41.617 6.9 318 -999 103670 100
2006-12-19 08:44:34 51°10.951 2°41.597 7.4 282 -999 103670 100
2006-12-19 08:44:40 51°10.942 2°41.567 7.5 319 -999 103670 100
2006-12-19 08:44:44 51°10.937 2°41.546 7.1 318 -999 103670 100
2006-12-19 08:44:49 51°10.93 2°41.52 7.1 317 -999 103670 100
2006-12-19 08:44:55 51°10.921 2°41.488 6.9 285 -999 103670 100
2006-12-19 08:45:00 51°10.915 2°41.46 6.8 319 -999 103670 100
2006-12-19 08:45:04 51°10.91 2°41.437 7.4 281 -999 103670 100
2006-12-19 08:45:09 51°10.902 2°41.41 6.8 317 -999 103670 100
2006-12-19 08:45:15 51°10.895 2°41.376 7.1 286 -999 103660 100
2006-12-19 08:45:20 51°10.887 2°41.349 7.9 320 -999 103660 100
2006-12-19 08:45:24 51°10.881 2°41.327 7.9 281 -999 103670 100
2006-12-19 08:45:29 51°10.875 2°41.298 7.6 318 -999 103670 100
2006-12-19 08:45:33 51°10.869 2°41.276 7.2 281 -999 103660 100
2006-12-19 08:45:40 51°10.86 2°41.236 7.3 316 -999 103660 100
2006-12-19 08:45:44 51°10.855 2°41.213 7.4 320 -999 103670 100
2006-12-19 08:45:49 51°10.848 2°41.185 8.2 324 -999 103670 100
2006-12-19 08:45:54 51°10.841 2°41.157 8 285 -999 103660 100
2006-12-19 08:45:59 51°10.834 2°41.129 7.3 323 -999 103660 100
2006-12-19 08:46:04 51°10.827 2°41.101 7.8 284 -999 103660 100
2006-12-19 08:46:10 51°10.819 2°41.067 7.7 321 -999 103660 100
2006-12-19 08:46:14 51°10.813 2°41.044 7.6 281 -999 103670 100
2006-12-19 08:46:20 51°10.805 2°41.01 7.7 320 -999 103670 100
2006-12-19 08:46:24 51°10.8 2°40.986 7.3 282 -999 103670 100
2006-12-19 08:46:30 51°10.793 2°40.952 7.7 321 -999 103670 100
2006-12-19 08:46:35 51°10.785 2°40.924 7 283 -999 103670 100
2006-12-19 08:46:40 51°10.779 2°40.895 7.6 323 -999 103670 100
2006-12-19 08:46:44 51°10.773 2°40.873 7.3 321 -999 103660 100
2006-12-19 08:46:49 51°10.766 2°40.844 7.7 322 -999 103660 100
2006-12-19 08:46:55 51°10.758 2°40.81 7.3 283 -999 103670 100
2006-12-19 08:46:59 51°10.752 2°40.788 7.8 325 -999 103670 100
2006-12-19 08:47:04 51°10.745 2°40.759 7.9 286 -999 103670 100
2006-12-19 08:47:09 51°10.738 2°40.73 7.9 323 -999 103670 100
2006-12-19 08:47:14 51°10.732 2°40.701 7.8 288 -999 103670 100
2006-12-19 08:47:20 51°10.724 2°40.667 7.6 324 -999 103670 100
2006-12-19 08:47:24 51°10.719 2°40.644 7.8 286 -999 103660 100
2006-12-19 08:47:29 51°10.712 2°40.615 7.2 322 -999 103660 100
2006-12-19 08:47:34 51°10.706 2°40.586 8 281 -999 103660 100
2006-12-19 08:47:40 51°10.697 2°40.552 8.1 326 -999 103660 100
2006-12-19 08:47:44 51°10.692 2°40.53 7.6 327 -999 103670 100
2006-12-19 08:47:49 51°10.685 2°40.501 7.4 325 -999 103670 100
2006-12-19 08:47:54 51°10.678 2°40.473 7.3 282 -999 103670 100
2006-12-19 08:48:00 51°10.669 2°40.439 7.2 326 -999 103670 100
2006-12-19 08:48:04 51°10.664 2°40.417 6.7 281 -999 103670 100
2006-12-19 08:48:09 51°10.656 2°40.389 7.1 322 -999 103670 100
2006-12-19 08:48:14 51°10.65 2°40.359 8.1 286 -999 103660 100
2006-12-19 08:48:19 51°10.644 2°40.331 8.1 321 -999 103660 100
2006-12-19 08:48:25 51°10.636 2°40.297 8.7 283 -999 103670 100
2006-12-19 08:48:29 51°10.63 2°40.275 7.9 324 -999 103670 100
2006-12-19 08:48:35 51°10.622 2°40.241 7.8 285 -999 103670 100
2006-12-19 08:48:39 51°10.617 2°40.218 7.2 321 -999 103670 100
2006-12-19 08:48:44 51°10.61 2°40.189 8 322 -999 103670 100
2006-12-19 08:48:49 51°10.604 2°40.161 7.5 322 -999 103670 100
2006-12-19 08:48:54 51°10.597 2°40.133 6.6 285 -999 103670 100
2006-12-19 08:49:00 51°10.589 2°40.099 6.4 324 -999 103670 100
2006-12-19 08:49:04 51°10.584 2°40.076 6.4 283 -999 103660 100
2006-12-19 08:49:10 51°10.576 2°40.042 7.1 323 -999 103660 100
2006-12-19 08:49:14 51°10.57 2°40.019 7.4 283 -999 103670 100
2006-12-19 08:49:20 51°10.561 2°39.986 7.9 322 -999 103670 100
2006-12-19 08:49:24 51°10.557 2°39.963 7 284 -999 103680 100
2006-12-19 08:49:29 51°10.55 2°39.935 7.6 322 -999 103680 100
2006-12-19 08:49:34 51°10.544 2°39.907 7.4 281 -999 103680 100
2006-12-19 08:49:40 51°10.536 2°39.873 7.2 321 -999 103680 100
2006-12-19 08:49:44 51°10.531 2°39.85 7.1 321 0.1 103680 100
2006-12-19 08:49:49 51°10.525 2°39.821 7.3 323 0.1 103680 100
2006-12-19 08:49:54 51°10.52 2°39.792 7.5 285 0.1 103680 100
2006-12-19 08:50:00 51°10.511 2°39.759 7.1 323 0.1 103680 100
2006-12-19 08:50:04 51°10.506 2°39.736 7.7 287 0.1 103680 100
2006-12-19 08:50:09 51°10.498 2°39.708 7.4 321 0.1 103680 100
2006-12-19 08:50:14 51°10.49 2°39.681 7.4 287 0.1 103680 100
2006-12-19 08:50:19 51°10.483 2°39.654 6.7 321 0.1 103680 100
2006-12-19 08:50:24 51°10.475 2°39.626 7.1 280 0.1 103680 100
2006-12-19 08:50:29 51°10.467 2°39.598 7.1 321 0.1 103680 100
2006-12-19 08:50:34 51°10.459 2°39.571 7.4 285 -999 103680 100
2006-12-19 08:50:39 51°10.452 2°39.543 7.3 324 -999 103680 100
2006-12-19 08:50:44 51°10.444 2°39.516 7.3 326 -999 103680 100
2006-12-19 08:50:50 51°10.435 2°39.483 6.7 327 -999 103680 100
2006-12-19 08:50:54 51°10.428 2°39.461 8 285 -999 103690 100
2006-12-19 08:51:00 51°10.419 2°39.427 7.3 326 -999 103690 100
2006-12-19 08:51:04 51°10.413 2°39.405 7.7 283 -999 103680 100
2006-12-19 08:51:10 51°10.404 2°39.371 7.8 321 -999 103680 100
2006-12-19 08:51:15 51°10.396 2°39.344 7.9 282 0.1 103680 100
2006-12-19 08:51:19 51°10.391 2°39.322 7.8 322 0.1 103680 100
2006-12-19 08:51:24 51°10.383 2°39.294 8 284 -999 103690 100
2006-12-19 08:51:29 51°10.376 2°39.266 7.6 322 -999 103690 100
2006-12-19 08:51:35 51°10.366 2°39.233 7.6 287 0.1 103680 100
2006-12-19 08:51:40 51°10.358 2°39.205 7.5 323 0.1 103680 100
2006-12-19 08:51:44 51°10.353 2°39.182 7.3 327 0.1 103680 100
2006-12-19 08:51:49 51°10.344 2°39.155 7.2 324 0.1 103680 100
2006-12-19 08:51:54 51°10.336 2°39.127 7.5 287 0.1 103680 100
2006-12-19 08:52:00 51°10.327 2°39.094 7.4 328 0.1 103680 100
2006-12-19 08:52:04 51°10.322 2°39.071 7.9 285 0.1 103690 100
2006-12-19 08:52:09 51°10.314 2°39.044 8.5 330 0.1 103690 100
2006-12-19 08:52:14 51°10.306 2°39.016 8.5 328 0.1 103690 100
2006-12-19 08:52:20 51°10.296 2°38.983 8.4 329 0.1 103690 100
2006-12-19 08:52:24 51°10.29 2°38.961 8.2 283 0.1 103680 100
2006-12-19 08:52:30 51°10.281 2°38.928 7.6 327 0.1 103680 100
2006-12-19 08:52:34 51°10.275 2°38.907 8.2 281 0.1 103690 100
2006-12-19 08:52:40 51°10.265 2°38.874 8.2 327 0.1 103690 100
2006-12-19 08:52:45 51°10.257 2°38.845 7.9 327 0.1 103680 100
2006-12-19 08:52:49 51°10.251 2°38.823 7.5 329 0.1 103680 100
2006-12-19 08:52:55 51°10.241 2°38.79 8.1 287 0.1 103690 100
2006-12-19 08:52:59 51°10.235 2°38.768 7.8 329 0.1 103690 100
2006-12-19 08:53:05 51°10.226 2°38.735 8.7 287 0.1 103680 100
2006-12-19 08:53:09 51°10.22 2°38.713 8.5 327 0.1 103680 100
2006-12-19 08:53:14 51°10.212 2°38.685 8.9 282 0.1 103690 100
2006-12-19 08:53:19 51°10.205 2°38.657 9.2 326 0.1 103690 100
2006-12-19 08:53:24 51°10.197 2°38.63 8.4 284 0.1 103690 100
2006-12-19 08:53:30 51°10.188 2°38.596 8.1 325 0.1 103690 100
2006-12-19 08:53:34 51°10.181 2°38.575 7.7 282 0.1 103690 100
2006-12-19 08:53:40 51°10.172 2°38.542 8.1 325 0.1 103690 100
2006-12-19 08:53:44 51°10.166 2°38.52 7.3 325 0.1 103680 100
2006-12-19 08:53:49 51°10.158 2°38.492 7.3 323 0.1 103680 100
2006-12-19 08:53:55 51°10.149 2°38.459 8.2 286 0.1 103680 100
2006-12-19 08:54:00 51°10.141 2°38.431 8.4 325 0.1 103680 100
2006-12-19 08:54:04 51°10.135 2°38.409 8.1 282 0.1 103690 100
2006-12-19 08:54:09 51°10.128 2°38.382 7.7 327 0.1 103690 100